Redstone, MT (59257)

3:54 PM MDT on October 14, 2019 (GMT -0600)
South Orville, MT | | Change Station

Elev 2720 ft 48.70 °N, 105.21 °W | Updated 6 seconds ago

Mostly Cloudy
Mostly Cloudy
46.2 °F
Feels Like 43 °F
N
6.7
Wind Variable Wind from North
Gusts 7.4 mph

Today
High -- | Low -- °F
--% Chance of Precip.
Yesterday
High -- | Low -- °F
Precip. -- in
Pressure 29.82 in
Visibility 10.0 miles
Clouds Mostly Cloudy 4700 ft
Windchill 43 °F
Dew Point 18 °F
Humidity 32%
Rainfall 0.07 in
Snow Depth Not available.
7:18 AM 6:12 PM
Full, 99% visible
METAR KOLF 142053Z AUTO 28023G32KT 10SM BKN047 13/02 A2978 RMK AO2 PK WND 28032/2044 SLP097 T01280022 53003 $
Pressure 29.82 in
Visibility 10.0 miles
Clouds Mostly Cloudy 4700 ft
Windchill 43 °F
Dew Point 18 °F
Humidity 32%
Rainfall 0.07 in
Snow Depth Not available.
7:18 AM 6:12 PM
Full, 99% visible
METAR KOLF 142053Z AUTO 28023G32KT 10SM BKN047 13/02 A2978 RMK AO2 PK WND 28032/2044 SLP097 T01280022 53003 $

Get Severe Weather Alerts

Thanks for signing up!

Be on the lookout for a verification email in your inbox.

You'll start receiving the daily forecast at 6 AM.

×

10-Day Weather Forecast

Almanac

Astronomy

Oct. 14, 2019 Rise Set
Actual Time
Civil Twilight
Nautical Twilight
Astronomical Twilight
Moon
Length of Visible Light
Length of Day
Tomorrow will be .
, % of the Moon is Illuminated

Today's Extremes

State Highs State Lows

Community

WunderPhotos

Category 6

Welcome to Category 6. This is the collective home for Weather Underground's featured writeups by Dr. Jeff Masters (right), Bob Henson (left), Chris Burt, and other regular contributors.

Nearby

Air Quality

  Air Quality AQ Index Pollutant
Not available.

Snow Depth

Station Depth Elevation

Earthquake Activity

City Distance Mag. Time & Date
Minimum magnitude displayed is 2.5.

Coastal Water Temperatures

Place Temperature

Stations

Nearby Weather Stations

Station Location Temp. Windchill Dew Point Humidity Wind Precip. Elev Updated Type
                   

Watches & Warnings

There are currently no watches in effect.